createdAt,value
2018-08-04T00:01:04.391Z,27.47
2018-08-04T00:02:04.393Z,27.35
2018-08-04T00:02:43.385Z,27.37
2018-08-04T00:03:43.364Z,27.28
2018-08-04T00:04:43.373Z,27.37
2018-08-04T00:06:04.375Z,27.35
2018-08-04T00:07:04.370Z,27.23
2018-08-04T00:07:43.365Z,27.22
2018-08-04T00:08:43.394Z,27.23
2018-08-04T00:09:43.366Z,27.20
2018-08-04T00:11:04.358Z,27.05
2018-08-04T00:12:04.350Z,27.04
2018-08-04T00:12:43.332Z,26.97
2018-08-04T00:13:43.331Z,26.83
2018-08-04T00:14:43.323Z,26.78
2018-08-04T00:16:04.339Z,26.63
2018-08-04T00:17:04.329Z,26.45
2018-08-04T00:17:43.299Z,26.33
2018-08-04T00:18:43.311Z,26.18
2018-08-04T00:19:43.314Z,26.06
2018-08-04T00:21:04.313Z,25.95
2018-08-04T00:22:04.301Z,25.91
2018-08-04T00:22:43.290Z,25.73
2018-08-04T00:23:43.291Z,25.58
2018-08-04T00:24:43.295Z,25.56
2018-08-04T00:26:04.281Z,25.41
2018-08-04T00:27:04.285Z,25.34
2018-08-04T00:27:43.263Z,25.36
2018-08-04T00:28:43.262Z,25.49
2018-08-04T00:29:43.268Z,25.37
2018-08-04T00:31:04.267Z,25.36
2018-08-04T00:32:04.267Z,25.33
2018-08-04T00:32:43.238Z,25.26
2018-08-04T00:33:43.243Z,25.25
2018-08-04T00:34:43.248Z,25.22
2018-08-04T00:36:04.240Z,25.16
2018-08-04T00:37:04.229Z,25.18
2018-08-04T00:37:43.229Z,25.00
2018-08-04T00:38:43.219Z,25.00
2018-08-04T00:39:43.207Z,24.85
2018-08-04T00:41:04.225Z,24.89
2018-08-04T00:42:04.220Z,24.81
2018-08-04T00:42:43.205Z,24.75
2018-08-04T00:43:43.209Z,24.65
2018-08-04T00:44:43.200Z,24.62
2018-08-04T00:46:04.199Z,24.53
2018-08-04T00:47:04.205Z,24.59
2018-08-04T00:47:43.179Z,24.55
2018-08-04T00:48:43.172Z,24.63
2018-08-04T00:49:43.182Z,24.69
2018-08-04T00:51:04.176Z,24.77
2018-08-04T00:52:04.174Z,24.88
2018-08-04T00:52:43.165Z,25.11
2018-08-04T00:53:43.157Z,24.97
2018-08-04T00:54:43.151Z,25.15
2018-08-04T00:56:04.147Z,25.26
2018-08-04T00:57:04.150Z,25.26
2018-08-04T00:57:43.147Z,25.37
2018-08-04T00:58:43.134Z,25.39
2018-08-04T00:59:43.139Z,25.41
2018-08-04T01:01:04.138Z,25.37
2018-08-04T01:02:04.126Z,25.21
2018-08-04T01:02:43.133Z,25.24
2018-08-04T01:03:43.113Z,25.29
2018-08-04T01:04:43.107Z,25.26
2018-08-04T01:06:04.109Z,25.29
2018-08-04T01:07:04.095Z,25.29
2018-08-04T01:07:43.116Z,25.36
2018-08-04T01:08:43.095Z,25.44
2018-08-04T01:09:43.092Z,25.46
2018-08-04T01:11:04.083Z,25.55
2018-08-04T01:12:04.094Z,25.56
2018-08-04T01:12:43.081Z,25.61
2018-08-04T01:13:43.068Z,25.67
2018-08-04T01:14:43.066Z,25.81
2018-08-04T01:16:04.069Z,25.78
2018-08-04T01:17:04.060Z,25.81
2018-08-04T01:17:43.044Z,25.86
2018-08-04T01:18:43.054Z,25.95
2018-08-04T01:19:43.058Z,25.86
2018-08-04T01:21:04.071Z,25.96
2018-08-04T01:22:04.037Z,26.01
2018-08-04T01:22:43.031Z,25.99
2018-08-04T01:23:43.022Z,26.04
2018-08-04T01:24:43.024Z,26.03
2018-08-04T01:26:04.034Z,25.99
2018-08-04T01:27:04.013Z,25.95
2018-08-04T01:27:43.013Z,25.93
2018-08-04T01:28:43.003Z,25.99
2018-08-04T01:29:43.021Z,26.01
2018-08-04T01:31:04.044Z,25.91
2018-08-04T01:32:04.001Z,25.98
2018-08-04T01:32:43.000Z,25.93
2018-08-04T01:33:42.982Z,25.80
2018-08-04T01:34:42.980Z,25.86
2018-08-04T01:36:03.990Z,25.86
2018-08-04T01:37:03.986Z,25.93
2018-08-04T01:37:42.965Z,25.93
2018-08-04T01:38:42.960Z,25.86
2018-08-04T01:39:42.964Z,25.92
2018-08-04T01:41:03.967Z,25.89
2018-08-04T01:42:03.961Z,25.92
2018-08-04T01:42:42.949Z,25.91
2018-08-04T01:43:42.954Z,26.01
2018-08-04T01:44:42.941Z,26.04
2018-08-04T01:46:03.942Z,26.01
2018-08-04T01:47:03.941Z,25.95
2018-08-04T01:47:42.932Z,25.96
2018-08-04T01:48:42.917Z,25.96
2018-08-04T01:49:42.910Z,25.81
2018-08-04T01:51:03.919Z,25.83
2018-08-04T01:52:03.940Z,25.85
2018-08-04T01:52:42.903Z,25.71
2018-08-04T01:53:42.967Z,25.68
2018-08-04T01:54:42.899Z,25.71
2018-08-04T01:56:03.909Z,25.63
2018-08-04T01:57:03.898Z,25.55
2018-08-04T01:57:42.887Z,25.58
2018-08-04T01:58:42.885Z,25.56
2018-08-04T01:59:42.872Z,25.55
2018-08-04T02:01:03.877Z,25.56
2018-08-04T02:02:03.859Z,25.52
2018-08-04T02:02:42.867Z,25.63
2018-08-04T02:03:42.849Z,25.58
2018-08-04T02:04:42.860Z,25.56
2018-08-04T02:06:03.865Z,25.63
2018-08-04T02:07:03.849Z,25.63
2018-08-04T02:07:42.836Z,25.62
2018-08-04T02:08:42.854Z,25.59
2018-08-04T02:09:42.839Z,25.70
2018-08-04T02:11:03.839Z,25.62
2018-08-04T02:12:03.843Z,25.73
2018-08-04T02:12:42.824Z,25.67
2018-08-04T02:13:42.807Z,25.73
2018-08-04T02:14:42.809Z,25.71
2018-08-04T02:16:03.818Z,25.70
2018-08-04T02:17:03.800Z,25.71
2018-08-04T02:17:42.791Z,25.74
2018-08-04T02:18:42.785Z,25.74
2018-08-04T02:19:42.783Z,25.70
2018-08-04T02:21:03.802Z,25.66
2018-08-04T02:22:03.793Z,25.73
2018-08-04T02:22:42.769Z,25.66
2018-08-04T02:23:42.764Z,25.63
2018-08-04T02:24:42.772Z,25.63
2018-08-04T02:26:03.767Z,25.61
2018-08-04T02:27:03.769Z,25.66
2018-08-04T02:27:42.756Z,25.61
2018-08-04T02:28:42.755Z,25.58
2018-08-04T02:29:42.743Z,25.59
2018-08-04T02:31:03.744Z,25.62
2018-08-04T02:32:03.751Z,25.58
2018-08-04T02:32:42.734Z,25.62
2018-08-04T02:33:42.735Z,25.62
2018-08-04T02:34:42.739Z,25.66
2018-08-04T02:36:03.726Z,25.61
2018-08-04T02:37:03.727Z,25.56
2018-08-04T02:37:42.708Z,25.61
2018-08-04T02:38:42.689Z,25.59
2018-08-04T02:39:42.693Z,25.61
2018-08-04T02:41:03.713Z,25.62
2018-08-04T02:42:03.693Z,25.66
2018-08-04T02:42:42.682Z,25.55
2018-08-04T02:43:42.688Z,25.61
2018-08-04T02:44:42.679Z,25.56
2018-08-04T02:46:03.684Z,25.58
2018-08-04T02:47:03.677Z,25.52
2018-08-04T02:47:42.675Z,25.52
2018-08-04T02:48:42.674Z,25.52
2018-08-04T02:49:42.660Z,25.43
2018-08-04T02:51:03.654Z,25.51
2018-08-04T02:52:03.662Z,25.49
2018-08-04T02:52:42.643Z,25.49
2018-08-04T02:53:42.647Z,25.52
2018-08-04T02:54:42.638Z,25.48
2018-08-04T02:56:03.667Z,25.37
2018-08-04T02:57:03.637Z,25.51
2018-08-04T02:57:42.615Z,25.41
2018-08-04T02:58:42.620Z,25.36
2018-08-04T02:59:42.624Z,25.41
2018-08-04T03:01:03.622Z,25.22
2018-08-04T03:02:03.618Z,25.21
2018-08-04T03:02:42.597Z,25.04
2018-08-04T03:03:42.633Z,24.97
2018-08-04T03:04:42.618Z,24.97
2018-08-04T03:06:03.590Z,24.88
2018-08-04T03:07:03.593Z,24.92
2018-08-04T03:07:42.579Z,24.94
2018-08-04T03:08:42.596Z,25.00
2018-08-04T03:09:42.593Z,24.99
2018-08-04T03:11:03.593Z,25.07
2018-08-04T03:12:03.568Z,25.12
2018-08-04T03:12:42.559Z,25.03
2018-08-04T03:13:42.558Z,25.09
2018-08-04T03:14:42.549Z,25.00
2018-08-04T03:16:03.546Z,24.99
2018-08-04T03:17:03.549Z,25.01
2018-08-04T03:17:42.534Z,25.04
2018-08-04T03:18:42.529Z,24.97
2018-08-04T03:19:42.519Z,25.06
2018-08-04T03:21:03.527Z,25.09
2018-08-04T03:22:03.517Z,25.04
2018-08-04T03:22:42.586Z,24.81
2018-08-04T03:23:42.501Z,24.79
2018-08-04T03:24:42.498Z,24.84
2018-08-04T03:26:03.496Z,24.84
2018-08-04T03:27:03.502Z,24.82
2018-08-04T03:27:42.494Z,24.93
2018-08-04T03:28:42.484Z,24.85
2018-08-04T03:29:42.481Z,24.92
2018-08-04T03:31:03.476Z,24.84
2018-08-04T03:32:03.484Z,24.88
2018-08-04T03:32:42.464Z,24.94
2018-08-04T03:33:42.458Z,24.85
2018-08-04T03:34:42.467Z,24.79
2018-08-04T03:36:03.497Z,24.82
2018-08-04T03:37:03.461Z,24.78
2018-08-04T03:37:42.438Z,24.84
2018-08-04T03:38:42.434Z,24.78
2018-08-04T03:39:42.438Z,24.82
2018-08-04T03:41:03.436Z,24.84
2018-08-04T03:42:03.435Z,24.85
2018-08-04T03:42:42.416Z,24.88
2018-08-04T03:43:42.414Z,24.85
2018-08-04T03:44:42.406Z,24.85
2018-08-04T03:46:03.417Z,24.85
2018-08-04T03:47:03.410Z,24.86
2018-08-04T03:47:42.402Z,24.89
2018-08-04T03:48:42.393Z,24.92
2018-08-04T03:49:42.395Z,24.94
2018-08-04T03:51:03.381Z,24.86
2018-08-04T03:52:03.386Z,24.89
2018-08-04T03:52:42.385Z,24.86
2018-08-04T03:53:42.360Z,24.92
2018-08-04T03:54:42.369Z,24.84
2018-08-04T03:56:03.368Z,24.88
2018-08-04T03:57:03.361Z,24.81
2018-08-04T03:57:42.341Z,24.85
2018-08-04T03:58:42.340Z,24.78
2018-08-04T03:59:42.372Z,24.66
2018-08-04T04:01:03.399Z,24.66
2018-08-04T04:02:03.326Z,24.69
2018-08-04T04:02:42.332Z,24.66
2018-08-04T04:03:42.323Z,24.63
2018-08-04T04:04:42.321Z,24.65
2018-08-04T04:06:03.325Z,24.55
2018-08-04T04:07:03.310Z,24.50
2018-08-04T04:07:42.299Z,24.40
2018-08-04T04:08:42.320Z,24.32
2018-08-04T04:09:42.303Z,24.26
2018-08-04T04:11:03.291Z,24.34
2018-08-04T04:12:03.287Z,24.24
2018-08-04T04:12:42.279Z,24.38
2018-08-04T04:13:42.280Z,24.38
2018-08-04T04:14:42.265Z,24.46
2018-08-04T04:16:03.269Z,24.44
2018-08-04T04:17:03.258Z,24.48
2018-08-04T04:17:42.267Z,24.65
2018-08-04T04:18:42.247Z,24.63
2018-08-04T04:19:42.255Z,24.69
2018-08-04T04:21:03.253Z,24.84
2018-08-04T04:22:03.256Z,24.86
2018-08-04T04:22:42.238Z,24.86
2018-08-04T04:23:42.228Z,25.00
2018-08-04T04:24:42.217Z,24.97
2018-08-04T04:26:03.205Z,25.03
2018-08-04T04:27:03.223Z,25.03
2018-08-04T04:27:42.204Z,25.14
2018-08-04T04:28:42.206Z,25.18
2018-08-04T04:29:42.197Z,25.24
2018-08-04T04:31:03.194Z,25.18
2018-08-04T04:32:03.212Z,25.31
2018-08-04T04:32:42.197Z,25.25
2018-08-04T04:33:42.183Z,25.34
2018-08-04T04:34:42.184Z,25.40
2018-08-04T04:36:03.173Z,25.36
2018-08-04T04:37:03.174Z,25.44
2018-08-04T04:37:42.171Z,25.48
2018-08-04T04:38:42.154Z,25.48
2018-08-04T04:39:42.157Z,25.44
2018-08-04T04:41:03.164Z,25.56
2018-08-04T04:42:03.147Z,25.56
2018-08-04T04:42:42.136Z,25.55
2018-08-04T04:43:42.136Z,25.59
2018-08-04T04:44:42.136Z,25.66
2018-08-04T04:46:03.131Z,25.67
2018-08-04T04:47:03.126Z,25.61
2018-08-04T04:47:42.119Z,25.67
2018-08-04T04:48:42.112Z,25.70
2018-08-04T04:49:42.162Z,25.68
2018-08-04T04:51:03.131Z,25.76
2018-08-04T04:52:03.101Z,25.80
2018-08-04T04:52:42.097Z,25.80
2018-08-04T04:53:42.078Z,25.83
2018-08-04T04:54:42.087Z,25.73
2018-08-04T04:56:03.077Z,25.67
2018-08-04T04:57:03.079Z,25.83
2018-08-04T04:57:42.081Z,25.85
2018-08-04T04:58:42.089Z,25.81
2018-08-04T04:59:42.092Z,25.81
2018-08-04T05:01:03.069Z,25.81
2018-08-04T05:02:03.093Z,25.86
2018-08-04T05:02:42.047Z,25.85
2018-08-04T05:03:42.042Z,25.88
2018-08-04T05:04:42.065Z,25.91
2018-08-04T05:06:03.046Z,25.81
2018-08-04T05:07:03.033Z,25.93
2018-08-04T05:07:42.030Z,25.89
2018-08-04T05:08:42.063Z,25.86
2018-08-04T05:09:42.019Z,25.89
2018-08-04T05:11:03.018Z,25.95
2018-08-04T05:12:03.010Z,25.92
2018-08-04T05:12:42.010Z,25.96
2018-08-04T05:13:41.996Z,25.92
2018-08-04T05:14:41.994Z,26.03
2018-08-04T05:16:02.994Z,25.99
2018-08-04T05:17:02.986Z,25.99
2018-08-04T05:17:41.984Z,26.04
2018-08-04T05:18:41.965Z,26.08
2018-08-04T05:19:41.967Z,26.07
2018-08-04T05:21:02.964Z,26.03
2018-08-04T05:22:02.975Z,26.13
2018-08-04T05:22:41.953Z,26.03
2018-08-04T05:23:41.940Z,26.04
2018-08-04T05:24:41.947Z,25.96
2018-08-04T05:26:02.953Z,26.13
2018-08-04T05:27:02.950Z,25.99
2018-08-04T05:27:41.932Z,26.13
2018-08-04T05:28:41.922Z,26.03
2018-08-04T05:29:41.927Z,26.06
2018-08-04T05:31:02.940Z,26.15
2018-08-04T05:32:02.960Z,26.03
2018-08-04T05:32:41.915Z,26.18
2018-08-04T05:33:41.919Z,26.13
2018-08-04T05:34:41.909Z,26.19
2018-08-04T05:36:02.916Z,26.16
2018-08-04T05:37:02.892Z,26.22
2018-08-04T05:37:41.884Z,26.22
2018-08-04T05:38:41.883Z,26.24
2018-08-04T05:39:41.891Z,26.23
2018-08-04T05:41:02.890Z,26.27
2018-08-04T05:42:02.873Z,26.29
2018-08-04T05:42:41.869Z,26.23
2018-08-04T05:43:41.896Z,26.29
2018-08-04T05:44:41.861Z,26.30
2018-08-04T05:46:02.858Z,26.33
2018-08-04T05:47:02.855Z,26.34
2018-08-04T05:47:41.868Z,26.27
2018-08-04T05:48:41.842Z,26.34
2018-08-04T05:49:41.834Z,26.36
2018-08-04T05:51:02.847Z,26.39
2018-08-04T05:52:02.828Z,26.48
2018-08-04T05:52:41.819Z,26.46
2018-08-04T05:53:41.821Z,26.48
2018-08-04T05:54:41.820Z,26.49
2018-08-04T05:56:02.818Z,26.44
2018-08-04T05:57:02.810Z,26.48
2018-08-04T05:57:41.809Z,26.49
2018-08-04T05:58:41.789Z,26.49
2018-08-04T05:59:41.795Z,26.51
2018-08-04T06:01:02.793Z,26.51
2018-08-04T06:02:02.793Z,26.52
2018-08-04T06:02:41.785Z,26.53
2018-08-04T06:03:41.788Z,26.59
2018-08-04T06:04:41.765Z,26.49
2018-08-04T06:06:02.774Z,26.61
2018-08-04T06:07:02.779Z,26.67
2018-08-04T06:07:41.763Z,26.59
2018-08-04T06:08:41.764Z,26.63
2018-08-04T06:09:41.749Z,26.55
2018-08-04T06:11:02.762Z,26.63
2018-08-04T06:12:02.753Z,26.67
2018-08-04T06:12:41.736Z,26.64
2018-08-04T06:13:41.744Z,26.68
2018-08-04T06:14:41.737Z,26.66
2018-08-04T06:16:02.738Z,26.64
2018-08-04T06:17:02.729Z,26.68
2018-08-04T06:17:41.725Z,26.71
2018-08-04T06:18:41.724Z,26.81
2018-08-04T06:19:41.725Z,26.74
2018-08-04T06:21:02.721Z,26.74
2018-08-04T06:22:02.736Z,26.74
2018-08-04T06:22:41.704Z,26.74
2018-08-04T06:23:41.687Z,26.78
2018-08-04T06:24:41.692Z,26.74
2018-08-04T06:26:02.695Z,26.81
2018-08-04T06:27:02.676Z,26.83
2018-08-04T06:27:41.679Z,26.83
2018-08-04T06:28:41.673Z,26.88
2018-08-04T06:29:41.670Z,26.88
2018-08-04T06:31:02.679Z,26.79
2018-08-04T06:32:02.670Z,26.86
2018-08-04T06:32:41.660Z,26.88
2018-08-04T06:33:41.646Z,26.85
2018-08-04T06:34:41.658Z,26.85
2018-08-04T06:36:02.666Z,26.85
2018-08-04T06:37:02.643Z,26.85
2018-08-04T06:37:41.632Z,26.89
2018-08-04T06:38:41.636Z,27.00
2018-08-04T06:39:41.636Z,26.98
2018-08-04T06:41:02.623Z,27.00
2018-08-04T06:42:02.653Z,27.00
2018-08-04T06:42:41.612Z,26.98
2018-08-04T06:43:41.611Z,27.08
2018-08-04T06:44:41.604Z,27.00
2018-08-04T06:46:02.635Z,27.01
2018-08-04T06:47:02.614Z,27.08
2018-08-04T06:47:41.579Z,27.19
2018-08-04T06:48:41.619Z,27.07
2018-08-04T06:49:41.619Z,27.25
2018-08-04T06:51:02.590Z,27.20
2018-08-04T06:52:02.616Z,27.23
2018-08-04T06:52:41.613Z,27.26
2018-08-04T06:53:41.568Z,27.34
2018-08-04T06:54:41.573Z,27.28
2018-08-04T06:56:02.628Z,27.25
2018-08-04T06:57:02.561Z,27.22
2018-08-04T06:57:41.568Z,27.22
2018-08-04T06:58:41.545Z,27.20
2018-08-04T06:59:41.558Z,27.35
2018-08-04T07:01:02.555Z,27.33
2018-08-04T07:02:02.542Z,27.28
2018-08-04T07:02:41.520Z,27.30
2018-08-04T07:03:41.532Z,27.28
2018-08-04T07:04:41.530Z,27.37
2018-08-04T07:06:02.528Z,27.37
2018-08-04T07:07:02.536Z,27.41
2018-08-04T07:07:41.509Z,27.41
2018-08-04T07:08:41.500Z,27.37
2018-08-04T07:09:41.503Z,27.30
2018-08-04T07:11:02.510Z,27.41
2018-08-04T07:12:02.498Z,27.38
2018-08-04T07:12:41.494Z,27.43
2018-08-04T07:13:41.512Z,27.48
2018-08-04T07:14:41.482Z,27.43
2018-08-04T07:16:02.489Z,27.45
2018-08-04T07:17:02.484Z,27.48
2018-08-04T07:17:41.468Z,27.48
2018-08-04T07:18:41.466Z,27.55
2018-08-04T07:19:41.472Z,27.57
2018-08-04T07:21:02.476Z,27.57
2018-08-04T07:22:02.455Z,27.57
2018-08-04T07:22:41.484Z,27.53
2018-08-04T07:23:41.453Z,27.61
2018-08-04T07:24:41.473Z,27.67
2018-08-04T07:26:02.471Z,27.66
2018-08-04T07:27:02.479Z,27.67
2018-08-04T07:27:41.441Z,27.68
2018-08-04T07:28:41.418Z,27.66
2018-08-04T07:29:41.432Z,27.79
2018-08-04T07:31:02.425Z,27.78
2018-08-04T07:32:02.417Z,27.75
2018-08-04T07:32:41.408Z,27.79
2018-08-04T07:33:41.418Z,27.82
2018-08-04T07:34:41.410Z,27.85
2018-08-04T07:36:02.410Z,27.88
2018-08-04T07:37:02.405Z,27.94
2018-08-04T07:37:41.398Z,27.90
2018-08-04T07:38:41.395Z,27.94
2018-08-04T07:39:41.392Z,27.90
2018-08-04T07:41:02.446Z,27.97
2018-08-04T07:42:02.394Z,27.90
2018-08-04T07:42:41.379Z,27.97
2018-08-04T07:43:41.384Z,28.00
2018-08-04T07:44:41.380Z,27.98
2018-08-04T07:46:02.370Z,28.01
2018-08-04T07:47:02.368Z,28.03
2018-08-04T07:47:41.378Z,28.00
2018-08-04T07:48:41.356Z,28.18
2018-08-04T07:49:41.356Z,28.10
2018-08-04T07:51:02.357Z,28.16
2018-08-04T07:52:02.363Z,28.12
2018-08-04T07:52:41.350Z,28.09
2018-08-04T07:53:41.340Z,28.10
2018-08-04T07:54:41.335Z,28.18
2018-08-04T07:56:02.340Z,28.15
2018-08-04T07:57:02.326Z,28.13
2018-08-04T07:57:41.317Z,28.20
2018-08-04T07:58:41.311Z,28.22
2018-08-04T07:59:41.319Z,28.25
2018-08-04T08:01:02.341Z,28.25
2018-08-04T08:02:02.324Z,28.34
2018-08-04T08:02:41.300Z,28.34
2018-08-04T08:03:41.318Z,28.40
2018-08-04T08:04:41.320Z,28.31
2018-08-04T08:06:02.296Z,28.38
2018-08-04T08:07:02.296Z,28.43
2018-08-04T08:07:41.285Z,28.43
2018-08-04T08:08:41.309Z,28.46
2018-08-04T08:09:41.277Z,28.56
2018-08-04T08:11:02.338Z,28.43
2018-08-04T08:12:02.294Z,28.49
2018-08-04T08:12:41.275Z,28.56
2018-08-04T08:13:41.280Z,28.46
2018-08-04T08:14:41.263Z,28.55
2018-08-04T08:16:02.267Z,28.65
2018-08-04T08:17:02.279Z,28.59
2018-08-04T08:17:41.256Z,28.57
2018-08-04T08:18:41.253Z,28.56
2018-08-04T08:19:41.256Z,28.57
2018-08-04T08:21:02.259Z,28.68
2018-08-04T08:22:02.258Z,28.67
2018-08-04T08:22:41.244Z,28.65
2018-08-04T08:23:41.221Z,28.67
2018-08-04T08:24:41.280Z,28.74
2018-08-04T08:26:02.271Z,28.75
2018-08-04T08:27:02.227Z,28.65
2018-08-04T08:27:41.229Z,28.78
2018-08-04T08:28:41.219Z,28.80
2018-08-04T08:29:41.226Z,28.72
2018-08-04T08:31:02.216Z,28.82
2018-08-04T08:32:02.212Z,28.82
2018-08-04T08:32:41.221Z,28.86
2018-08-04T08:33:41.212Z,28.90
2018-08-04T08:34:41.203Z,28.87
2018-08-04T08:36:02.199Z,28.87
2018-08-04T08:37:02.197Z,28.94
2018-08-04T08:37:41.187Z,28.92
2018-08-04T08:38:41.180Z,29.00
2018-08-04T08:39:41.191Z,29.09
2018-08-04T08:41:02.200Z,28.97
2018-08-04T08:42:02.183Z,29.07
2018-08-04T08:42:41.176Z,29.07
2018-08-04T08:43:41.178Z,29.09
2018-08-04T08:44:41.168Z,29.13
2018-08-04T08:46:02.165Z,29.13
2018-08-04T08:47:02.165Z,29.13
2018-08-04T08:47:41.153Z,29.24
2018-08-04T08:48:41.153Z,29.18
2018-08-04T08:49:41.157Z,29.18
2018-08-04T08:51:02.178Z,29.21
2018-08-04T08:52:02.151Z,29.22
2018-08-04T08:52:41.133Z,29.25
2018-08-04T08:53:41.187Z,29.30
2018-08-04T08:54:41.130Z,29.32
2018-08-04T08:56:02.151Z,29.27
2018-08-04T08:57:02.129Z,29.28
2018-08-04T08:57:41.149Z,29.30
2018-08-04T08:58:41.132Z,29.35
2018-08-04T08:59:41.119Z,29.40
2018-08-04T09:01:02.115Z,29.39
2018-08-04T09:02:02.123Z,29.40
2018-08-04T09:02:41.111Z,29.42
2018-08-04T09:03:41.105Z,29.46
2018-08-04T09:04:41.112Z,29.44
2018-08-04T09:06:02.109Z,29.46
2018-08-04T09:07:02.101Z,29.53
2018-08-04T09:07:41.096Z,29.53
2018-08-04T09:08:41.122Z,29.57
2018-08-04T09:09:41.083Z,29.55
2018-08-04T09:11:02.085Z,29.59
2018-08-04T09:12:02.086Z,29.58
2018-08-04T09:12:41.091Z,29.61
2018-08-04T09:13:41.074Z,29.68
2018-08-04T09:14:41.073Z,29.67
2018-08-04T09:16:02.080Z,29.67
2018-08-04T09:17:02.085Z,29.67
2018-08-04T09:17:41.076Z,29.74
2018-08-04T09:18:41.063Z,29.73
2018-08-04T09:19:41.057Z,29.81
2018-08-04T09:21:02.065Z,29.77
2018-08-04T09:22:02.066Z,29.77
2018-08-04T09:22:41.037Z,29.74
2018-08-04T09:23:41.766Z,29.80
2018-08-04T09:24:41.040Z,29.84
2018-08-04T09:26:02.057Z,29.80
2018-08-04T09:27:02.058Z,29.86
2018-08-04T09:27:41.042Z,29.87
2018-08-04T09:28:41.026Z,29.86
2018-08-04T09:29:41.026Z,29.89
2018-08-04T09:31:02.051Z,29.86
2018-08-04T09:32:02.032Z,29.89
2018-08-04T09:32:41.031Z,29.92
2018-08-04T09:33:41.014Z,29.92
2018-08-04T09:34:41.030Z,29.95
2018-08-04T09:36:02.033Z,29.96
2018-08-04T09:37:02.018Z,30.01
2018-08-04T09:37:41.008Z,29.98
2018-08-04T09:38:41.014Z,30.02
2018-08-04T09:39:41.011Z,29.98
2018-08-04T09:41:02.024Z,29.99
2018-08-04T09:42:02.023Z,30.01
2018-08-04T09:42:40.997Z,29.99
2018-08-04T09:43:40.993Z,30.05
2018-08-04T09:44:40.998Z,30.11
2018-08-04T09:46:02.011Z,30.06
2018-08-04T09:47:01.991Z,30.08
2018-08-04T09:47:40.985Z,30.11
2018-08-04T09:48:41.000Z,30.11
2018-08-04T09:49:40.989Z,30.10
2018-08-04T09:51:01.979Z,30.13
2018-08-04T09:52:01.980Z,30.16
2018-08-04T09:52:41.059Z,30.13
2018-08-04T09:53:40.969Z,30.10
2018-08-04T09:54:40.977Z,30.24
2018-08-04T09:56:01.981Z,30.13
2018-08-04T09:57:01.980Z,30.21
2018-08-04T09:57:40.948Z,30.29
2018-08-04T09:58:40.951Z,30.26
2018-08-04T09:59:41.010Z,30.31
2018-08-04T10:01:01.955Z,30.31
2018-08-04T10:02:01.959Z,30.32
2018-08-04T10:02:40.951Z,30.31
2018-08-04T10:03:40.938Z,30.27
2018-08-04T10:04:40.944Z,30.36
2018-08-04T10:06:01.945Z,30.33
2018-08-04T10:07:01.942Z,30.32
2018-08-04T10:07:40.931Z,30.33
2018-08-04T10:08:40.931Z,30.31
2018-08-04T10:09:40.939Z,30.35
2018-08-04T10:11:01.961Z,30.35
2018-08-04T10:12:01.932Z,30.44
2018-08-04T10:12:40.918Z,30.43
2018-08-04T10:13:40.933Z,30.49
2018-08-04T10:14:40.980Z,30.48
2018-08-04T10:16:01.970Z,30.43
2018-08-04T10:17:01.927Z,30.52
2018-08-04T10:17:40.910Z,30.51
2018-08-04T10:18:40.913Z,30.54
2018-08-04T10:19:40.899Z,30.52
2018-08-04T10:21:01.920Z,30.52
2018-08-04T10:22:01.914Z,30.61
2018-08-04T10:22:40.900Z,30.49
2018-08-04T10:23:40.905Z,30.58
2018-08-04T10:24:40.900Z,30.55
2018-08-04T10:26:01.907Z,30.58
2018-08-04T10:27:01.909Z,30.54
2018-08-04T10:27:40.881Z,30.49
2018-08-04T10:28:40.876Z,30.59
2018-08-04T10:29:40.891Z,30.56
2018-08-04T10:31:03.514Z,30.59
2018-08-04T10:32:01.955Z,30.59
2018-08-04T10:32:41.033Z,30.56
2018-08-04T10:33:40.863Z,30.62
2018-08-04T10:34:40.866Z,30.58
2018-08-04T10:36:01.880Z,30.62
2018-08-04T10:37:01.865Z,30.62
2018-08-04T10:37:40.869Z,30.61
2018-08-04T10:38:40.914Z,30.63
2018-08-04T10:39:40.855Z,30.69
2018-08-04T10:41:01.853Z,30.70
2018-08-04T10:42:01.859Z,30.74
2018-08-04T10:42:40.858Z,30.65
2018-08-04T10:43:40.875Z,30.65
2018-08-04T10:44:40.863Z,30.67
2018-08-04T10:46:01.854Z,30.76
2018-08-04T10:47:01.849Z,30.71
2018-08-04T10:47:40.941Z,30.65
2018-08-04T10:48:40.874Z,30.71
2018-08-04T10:49:40.955Z,30.73
2018-08-04T10:51:01.838Z,30.70
2018-08-04T10:52:01.842Z,30.76
2018-08-04T10:52:40.833Z,30.74
2018-08-04T10:53:40.844Z,30.71
2018-08-04T10:54:40.820Z,30.74
2018-08-04T10:56:01.832Z,30.73
2018-08-04T10:57:01.858Z,30.76
2018-08-04T10:57:40.827Z,30.76
2018-08-04T10:58:40.829Z,30.78
2018-08-04T10:59:40.818Z,30.74
2018-08-04T11:01:01.831Z,30.76
2018-08-04T11:02:01.817Z,30.78
2018-08-04T11:02:40.812Z,30.83
2018-08-04T11:03:40.804Z,30.74
2018-08-04T11:04:40.821Z,30.74
2018-08-04T11:06:01.850Z,30.76
2018-08-04T11:07:01.886Z,30.85
2018-08-04T11:07:40.805Z,30.88
2018-08-04T11:08:40.797Z,30.93
2018-08-04T11:09:40.825Z,30.81
2018-08-04T11:11:01.805Z,30.81
2018-08-04T11:12:01.800Z,30.89
2018-08-04T11:12:40.822Z,30.92
2018-08-04T11:13:40.787Z,30.92
2018-08-04T11:14:40.778Z,30.93
2018-08-04T11:16:01.786Z,30.93
2018-08-04T11:17:01.780Z,30.86
2018-08-04T11:17:40.792Z,30.92
2018-08-04T11:18:40.768Z,30.88
2018-08-04T11:19:40.771Z,30.93
2018-08-04T11:21:01.784Z,30.99
2018-08-04T11:22:01.766Z,30.93
2018-08-04T11:22:40.770Z,30.99
2018-08-04T11:23:40.770Z,30.99
2018-08-04T11:24:40.761Z,31.00
2018-08-04T11:26:01.775Z,31.00
2018-08-04T11:27:01.763Z,31.00
2018-08-04T11:27:40.769Z,30.92
2018-08-04T11:28:40.764Z,30.95
2018-08-04T11:29:40.755Z,30.91
2018-08-04T11:31:01.765Z,31.02
2018-08-04T11:32:01.755Z,30.99
2018-08-04T11:32:40.773Z,31.02
2018-08-04T11:33:40.755Z,31.04
2018-08-04T11:34:40.788Z,31.02
2018-08-04T11:36:01.759Z,31.02
2018-08-04T11:37:01.757Z,31.02
2018-08-04T11:37:40.788Z,31.05
2018-08-04T11:38:40.742Z,31.00
2018-08-04T11:39:40.745Z,31.00
2018-08-04T11:41:01.769Z,31.00
2018-08-04T11:42:01.748Z,30.99
2018-08-04T11:42:40.753Z,30.95
2018-08-04T11:43:40.733Z,30.92
2018-08-04T11:44:40.729Z,30.92
2018-08-04T11:46:01.732Z,30.83
2018-08-04T11:47:01.746Z,30.80
2018-08-04T11:47:40.724Z,30.76
2018-08-04T11:48:40.724Z,30.73
2018-08-04T11:49:40.712Z,30.73
2018-08-04T11:51:01.727Z,30.76
2018-08-04T11:52:01.727Z,30.76
2018-08-04T11:52:40.708Z,30.78
2018-08-04T11:53:40.711Z,30.77
2018-08-04T11:54:40.710Z,30.78
2018-08-04T11:56:01.714Z,30.77
2018-08-04T11:57:01.715Z,30.86
2018-08-04T11:57:40.694Z,30.77
2018-08-04T11:58:40.695Z,30.78
2018-08-04T11:59:40.697Z,30.92
2018-08-04T12:01:01.703Z,30.78
2018-08-04T12:02:01.744Z,30.80
2018-08-04T12:02:40.688Z,30.74
2018-08-04T12:03:40.686Z,30.78
2018-08-04T12:04:40.687Z,30.71
2018-08-04T12:06:01.691Z,30.77
2018-08-04T12:07:01.693Z,30.77
2018-08-04T12:07:40.677Z,30.76
2018-08-04T12:08:40.680Z,30.73
2018-08-04T12:09:40.681Z,30.74
2018-08-04T12:11:01.727Z,30.77
2018-08-04T12:12:01.682Z,30.65
2018-08-04T12:12:40.665Z,30.65
2018-08-04T12:13:40.671Z,30.61
2018-08-04T12:14:40.670Z,30.69
2018-08-04T12:16:01.669Z,30.69
2018-08-04T12:17:01.672Z,30.73
2018-08-04T12:17:40.659Z,30.71
2018-08-04T12:18:40.661Z,30.67
2018-08-04T12:19:40.655Z,30.67
2018-08-04T12:21:01.666Z,30.65
2018-08-04T12:22:01.663Z,30.63
2018-08-04T12:22:40.663Z,30.69
2018-08-04T12:23:40.653Z,30.65
2018-08-04T12:24:40.650Z,30.61
2018-08-04T12:26:01.664Z,30.61
2018-08-04T12:27:01.664Z,30.63
2018-08-04T12:27:40.651Z,30.61
2018-08-04T12:28:40.639Z,30.67
2018-08-04T12:29:40.628Z,30.69
2018-08-04T12:31:01.641Z,30.69
2018-08-04T12:32:01.656Z,30.69
2018-08-04T12:32:40.638Z,30.71
2018-08-04T12:33:40.625Z,30.71
2018-08-04T12:34:40.638Z,30.69
2018-08-04T12:36:01.640Z,30.70
2018-08-04T12:37:01.643Z,30.73
2018-08-04T12:37:40.628Z,30.73
2018-08-04T12:38:40.628Z,30.73
2018-08-04T12:39:40.615Z,30.70
2018-08-04T12:41:01.632Z,30.67
2018-08-04T12:42:01.619Z,30.63
2018-08-04T12:42:40.611Z,30.59
2018-08-04T12:43:40.624Z,30.62
2018-08-04T12:44:40.613Z,30.76
2018-08-04T12:46:01.624Z,30.62
2018-08-04T12:47:01.624Z,30.69
2018-08-04T12:47:40.602Z,30.65
2018-08-04T12:48:40.623Z,30.62
2018-08-04T12:49:40.597Z,30.65
2018-08-04T12:51:01.607Z,30.67
2018-08-04T12:52:01.607Z,30.69
2018-08-04T12:52:40.599Z,30.62